Time;durP1;ratioP1;P1;durP2;ratioP2;P2;SDS_P1;SDS_P2;PMS_P1;PMS_P2;Temp;Humidity;BMP_temperature;BMP_pressure;BME280_temperature;BME280_humidity;BME280_pressure;Samples;Min_cycle;Max_cycle;Signal;HPM_P1;HPM_P2
2021/01/17 00:01:27;;;;;;;10.88;4.97;;;;;;;;;;4883255;29;20043;-24
2021/01/17 00:03:53;;;;;;;10.02;5.10;;;;;;;;;;4899723;29;20108;-24
2021/01/17 00:06:18;;;;;;;9.32;5.57;;;;;;;;;;4899826;29;20039;-24
2021/01/17 00:08:43;;;;;;;13.05;6.32;;;;;;;;;;4899718;29;20028;-24
2021/01/17 00:11:11;;;;;;;13.27;6.97;;;;;;;;;;4899719;29;20547;-25
2021/01/17 00:13:37;;;;;;;10.73;6.55;;;;;;;;;;4867312;29;20654;-24
2021/01/17 00:16:02;;;;;;;9.05;5.68;;;;;;;;;;4899546;29;20111;-24
2021/01/17 00:18:28;;;;;;;11.20;6.78;;;;;;;;;;4899890;29;20072;-24
2021/01/17 00:20:53;;;;;;;13.32;6.03;;;;;;;;;;4899441;29;20043;-24
2021/01/17 00:23:18;;;;;;;11.77;6.57;;;;;;;;;;4899779;29;20040;-25
2021/01/17 00:25:44;;;;;;;10.27;6.05;;;;;;;;;;4899370;29;20395;-25
2021/01/17 00:28:09;;;;;;;9.98;5.93;;;;;;;;;;4899456;29;20032;-24
2021/01/17 00:30:35;;;;;;;7.60;4.15;;;;;;;;;;4899036;29;20053;-25
2021/01/17 00:33:01;;;;;;;8.27;4.72;;;;;;;;;;4899211;29;20044;-24
2021/01/17 00:35:27;;;;;;;8.02;5.22;;;;;;;;;;4899254;29;20498;-25
2021/01/17 00:37:53;;;;;;;10.00;6.15;;;;;;;;;;4899396;29;20033;-24
2021/01/17 00:40:19;;;;;;;10.45;6.03;;;;;;;;;;4899126;29;20033;-24
2021/01/17 00:42:48;;;;;;;7.40;5.00;;;;;;;;;;4882128;29;20426;-24
2021/01/17 00:45:14;;;;;;;9.70;5.32;;;;;;;;;;4899074;29;20051;-24
2021/01/17 00:47:46;;;;;;;9.85;5.10;;;;;;;;;;4882152;29;20480;-24
2021/01/17 00:50:12;;;;;;;;;;;;;;;;;;4882579;29;20028;-24
2021/01/17 00:52:38;;;;;;;7.57;4.30;;;;;;;;;;4881787;29;20286;-23
2021/01/17 00:55:04;;;;;;;6.78;4.63;;;;;;;;;;4898986;29;20033;-24
2021/01/17 00:57:30;;;;;;;7.78;4.70;;;;;;;;;;4881061;29;20036;-24
2021/01/17 00:59:55;;;;;;;9.95;4.72;;;;;;;;;;4881866;29;20502;-24
2021/01/17 01:02:21;;;;;;;6.95;3.92;;;;;;;;;;4881864;29;20036;-24
2021/01/17 01:04:46;;;;;;;8.95;4.38;;;;;;;;;;4882136;29;20025;-24
2021/01/17 01:07:13;;;;;;;7.75;5.43;;;;;;;;;;4881815;29;20036;-24
2021/01/17 01:09:38;;;;;;;12.27;6.20;;;;;;;;;;4898840;29;20036;-24
2021/01/17 01:12:04;;;;;;;12.70;6.45;;;;;;;;;;4881731;29;20063;-24
2021/01/17 01:14:29;;;;;;;11.93;5.72;;;;;;;;;;4898487;29;20025;-24
2021/01/17 01:16:55;;;;;;;9.38;5.03;;;;;;;;;;4881524;29;20403;-24
2021/01/17 01:19:20;;;;;;;10.32;5.75;;;;;;;;;;4882070;29;20033;-24
2021/01/17 01:21:46;;;;;;;11.43;5.63;;;;;;;;;;4898296;29;20032;-24
2021/01/17 01:24:11;;;;;;;9.88;5.30;;;;;;;;;;4898351;29;20031;-24
2021/01/17 01:26:38;;;;;;;10.52;5.88;;;;;;;;;;4898551;29;20496;-24
2021/01/17 01:29:04;;;;;;;10.85;5.68;;;;;;;;;;4898018;29;20037;-24
2021/01/17 01:31:29;;;;;;;9.02;5.85;;;;;;;;;;4898407;29;20047;-24
2021/01/17 01:33:56;;;;;;;10.43;5.60;;;;;;;;;;4881407;29;20025;-24
2021/01/17 01:36:22;;;;;;;10.15;5.72;;;;;;;;;;4898180;29;20032;-24
2021/01/17 01:38:48;;;;;;;12.43;6.55;;;;;;;;;;4898188;29;20032;-24
2021/01/17 01:41:14;;;;;;;9.93;6.38;;;;;;;;;;4898198;29;20043;-24
2021/01/17 01:43:40;;;;;;;8.43;5.07;;;;;;;;;;4898016;29;20111;-23
2021/01/17 01:46:06;;;;;;;11.95;5.90;;;;;;;;;;4898056;29;20037;-24
2021/01/17 01:48:32;;;;;;;10.63;5.32;;;;;;;;;;4897964;29;20253;-24
2021/01/17 01:50:58;;;;;;;9.55;4.78;;;;;;;;;;4881139;29;20175;-24
2021/01/17 01:53:23;;;;;;;10.18;4.72;;;;;;;;;;4897888;29;20040;-23
2021/01/17 01:55:48;;;;;;;8.68;4.95;;;;;;;;;;4897795;29;20032;-24
2021/01/17 01:58:16;;;;;;;9.40;5.55;;;;;;;;;;4897837;29;20036;-24
2021/01/17 02:00:41;;;;;;;13.05;5.55;;;;;;;;;;4897648;29;20037;-24
2021/01/17 02:03:08;;;;;;;10.20;5.50;;;;;;;;;;4880853;29;20638;-24
2021/01/17 02:05:33;;;;;;;7.82;4.57;;;;;;;;;;4897661;29;20116;-25
2021/01/17 02:08:17;;;;;;;9.43;5.35;;;;;;;;;;4897392;29;20064;-24
2021/01/17 02:10:43;;;;;;;15.88;8.93;;;;;;;;;;4897392;29;20060;-23
2021/01/17 02:13:20;;;;;;;9.95;5.85;;;;;;;;;;4897528;29;20064;-23
2021/01/17 02:15:46;;;;;;;10.35;5.20;;;;;;;;;;4897514;29;20035;-25
2021/01/17 02:18:12;;;;;;;6.85;5.60;;;;;;;;;;4897370;29;20031;-24
2021/01/17 02:20:38;;;;;;;10.25;5.47;;;;;;;;;;4880571;29;20032;-23
2021/01/17 02:23:18;;;;;;;10.85;4.32;;;;;;;;;;4880658;29;20095;-24
2021/01/17 02:25:44;;;;;;;8.77;4.50;;;;;;;;;;4897495;29;20064;-24
2021/01/17 02:28:11;;;;;;;11.25;5.97;;;;;;;;;;4897324;29;20075;-24
2021/01/17 02:30:38;;;;;;;10.95;5.82;;;;;;;;;;4897172;29;20393;-25
2021/01/17 02:33:11;;;;;;;10.85;5.25;;;;;;;;;;4897166;29;20032;-25
2021/01/17 02:35:38;;;;;;;10.07;4.97;;;;;;;;;;4897204;29;20607;-25
2021/01/17 02:38:06;;;;;;;9.80;5.07;;;;;;;;;;4880516;29;20036;-25
2021/01/17 02:40:50;;;;;;;10.02;5.50;;;;;;;;;;4897178;29;20464;-25
2021/01/17 02:43:16;;;;;;;9.52;4.63;;;;;;;;;;4897182;29;20041;-25
2021/01/17 02:45:41;;;;;;;9.23;5.55;;;;;;;;;;4880216;29;20036;-25
2021/01/17 02:48:07;;;;;;;11.40;5.15;;;;;;;;;;4880309;29;20039;-25
2021/01/17 02:50:32;;;;;;;12.00;5.63;;;;;;;;;;4880406;29;20060;-24
2021/01/17 02:53:08;;;;;;;9.05;5.18;;;;;;;;;;4897013;29;20040;-25
2021/01/17 02:55:36;;;;;;;9.82;5.57;;;;;;;;;;4861680;29;20029;-26
2021/01/17 02:58:03;;;;;;;7.72;4.78;;;;;;;;;;4861802;29;20089;-25
2021/01/17 03:00:31;;;;;;;11.93;5.35;;;;;;;;;;4878575;29;20032;-26
2021/01/17 03:02:57;;;;;;;9.52;6.03;;;;;;;;;;4878303;29;20025;-26
2021/01/17 03:05:23;;;;;;;10.57;5.68;;;;;;;;;;4878608;29;20757;-25
2021/01/17 03:07:50;;;;;;;10.25;5.47;;;;;;;;;;4878205;29;20026;-25
2021/01/17 03:10:16;;;;;;;10.85;5.38;;;;;;;;;;4878395;29;20385;-26
2021/01/17 03:12:41;;;;;;;10.80;5.78;;;;;;;;;;4861402;29;20041;-25
2021/01/17 03:15:08;;;;;;;8.70;5.60;;;;;;;;;;4861630;29;20409;-26
2021/01/17 03:17:33;;;;;;;8.52;5.15;;;;;;;;;;4878194;29;20048;-25
2021/01/17 03:19:59;;;;;;;8.18;4.90;;;;;;;;;;4879590;29;20040;-25
2021/01/17 03:22:24;;;;;;;8.13;4.72;;;;;;;;;;4882084;29;20089;-25
2021/01/17 03:24:50;;;;;;;9.63;5.03;;;;;;;;;;4865070;29;20552;-26
2021/01/17 03:27:15;;;;;;;8.95;5.30;;;;;;;;;;4865474;29;20040;-26
2021/01/17 03:29:40;;;;;;;7.93;4.90;;;;;;;;;;4881433;29;20553;-25
2021/01/17 03:32:06;;;;;;;10.63;5.18;;;;;;;;;;4881642;29;20079;-26
2021/01/17 03:34:31;;;;;;;8.65;4.53;;;;;;;;;;4881947;29;20025;-26
2021/01/17 03:36:57;;;;;;;8.27;5.30;;;;;;;;;;4881541;29;20388;-25
2021/01/17 03:39:22;;;;;;;7.35;4.80;;;;;;;;;;4864957;29;20033;-26
2021/01/17 03:41:48;;;;;;;8.65;5.10;;;;;;;;;;4881495;29;20041;-26
2021/01/17 03:44:13;;;;;;;7.43;4.95;;;;;;;;;;4881407;29;20025;-26
2021/01/17 03:46:38;;;;;;;8.65;5.00;;;;;;;;;;4881461;29;20036;-25
2021/01/17 03:49:04;;;;;;;8.10;5.75;;;;;;;;;;4881477;29;20472;-25
2021/01/17 03:51:29;;;;;;;7.32;4.63;;;;;;;;;;4864554;29;20037;-22
2021/01/17 03:53:55;;;;;;;8.52;4.38;;;;;;;;;;4864520;29;20509;-25
2021/01/17 03:56:20;;;;;;;12.95;5.70;;;;;;;;;;4880151;29;20056;-24
2021/01/17 03:58:45;;;;;;;7.35;4.55;;;;;;;;;;4881418;29;20112;-25
2021/01/17 04:01:11;;;;;;;8.63;4.90;;;;;;;;;;4881248;29;20033;-24
2021/01/17 04:03:36;;;;;;;9.10;4.82;;;;;;;;;;4881251;29;20045;-24
2021/01/17 04:06:02;;;;;;;11.50;4.88;;;;;;;;;;4882113;29;20068;-24
2021/01/17 04:08:27;;;;;;;5.82;4.72;;;;;;;;;;4882863;29;20083;-24
2021/01/17 04:10:53;;;;;;;11.35;4.97;;;;;;;;;;4899822;29;20043;-24
2021/01/17 04:13:18;;;;;;;8.88;4.88;;;;;;;;;;4882723;29;20044;-24
2021/01/17 04:15:44;;;;;;;7.38;4.68;;;;;;;;;;4882820;29;20116;-24
2021/01/17 04:18:09;;;;;;;8.55;4.80;;;;;;;;;;4899511;29;20061;-24
2021/01/17 04:20:35;;;;;;;6.93;4.18;;;;;;;;;;4899610;29;20104;-24
2021/01/17 04:23:03;;;;;;;8.02;3.92;;;;;;;;;;4899500;29;20039;-24
2021/01/17 04:25:29;;;;;;;8.00;4.68;;;;;;;;;;4882732;29;20037;-24
2021/01/17 04:27:55;;;;;;;6.95;4.68;;;;;;;;;;4899441;29;20035;-24
2021/01/17 04:30:21;;;;;;;6.90;4.72;;;;;;;;;;4899226;29;20452;-24
2021/01/17 04:32:46;;;;;;;8.15;5.57;;;;;;;;;;4882222;29;20477;-24
2021/01/17 04:35:13;;;;;;;8.88;4.97;;;;;;;;;;4899355;29;20040;-25
2021/01/17 04:37:39;;;;;;;7.57;4.45;;;;;;;;;;4899237;29;20032;-25
2021/01/17 04:40:05;;;;;;;6.93;4.82;;;;;;;;;;4882304;29;20029;-23
2021/01/17 04:42:34;;;;;;;8.15;4.55;;;;;;;;;;4882323;29;20122;-23
2021/01/17 04:45:02;;;;;;;7.20;4.97;;;;;;;;;;4899045;29;20029;-22
2021/01/17 04:47:28;;;;;;;7.18;3.75;;;;;;;;;;4899102;29;20032;-23
2021/01/17 04:49:58;;;;;;;11.68;6.35;;;;;;;;;;4899239;29;20035;-23
2021/01/17 04:52:26;;;;;;;7.20;4.43;;;;;;;;;;4882067;29;20075;-23
2021/01/17 04:54:56;;;;;;;8.98;5.65;;;;;;;;;;4899113;29;20116;-22
2021/01/17 04:57:38;;;;;;;5.57;4.10;;;;;;;;;;4899214;29;20040;-23
2021/01/17 05:00:04;;;;;;;10.20;5.40;;;;;;;;;;4898901;29;20045;-23
2021/01/17 05:02:35;;;;;;;6.63;3.88;;;;;;;;;;4898765;29;20037;-23
2021/01/17 05:05:15;;;;;;;7.95;4.40;;;;;;;;;;4898744;29;20036;-23
2021/01/17 05:07:48;;;;;;;7.38;4.50;;;;;;;;;;4898629;29;20044;-23
2021/01/17 05:10:13;;;;;;;9.50;5.05;;;;;;;;;;4881772;29;20037;-23
2021/01/17 05:12:39;;;;;;;10.02;5.13;;;;;;;;;;4898440;29;20096;-24
2021/01/17 05:15:06;;;;;;;7.22;4.63;;;;;;;;;;4898814;29;20029;-24
2021/01/17 05:17:39;;;;;;;7.50;5.07;;;;;;;;;;4898562;29;20037;-24
2021/01/17 05:20:05;;;;;;;7.57;4.63;;;;;;;;;;4898486;29;20523;-22
2021/01/17 05:22:30;;;;;;;9.40;5.47;;;;;;;;;;4898421;29;20025;-23
2021/01/17 05:24:57;;;;;;;13.10;6.68;;;;;;;;;;4898604;29;20855;-23
2021/01/17 05:27:22;;;;;;;9.02;5.68;;;;;;;;;;4881631;29;20119;-23
2021/01/17 05:29:48;;;;;;;8.20;4.85;;;;;;;;;;4898002;29;20131;-24
2021/01/17 05:32:14;;;;;;;8.02;4.78;;;;;;;;;;4898238;29;20131;-23
2021/01/17 05:34:39;;;;;;;8.10;4.45;;;;;;;;;;4898141;29;20088;-24
2021/01/17 05:37:14;;;;;;;7.43;4.07;;;;;;;;;;4898094;29;20091;-23
2021/01/17 05:40:09;;;;;;;8.07;5.13;;;;;;;;;;4880958;29;20051;-23
2021/01/17 05:42:41;;;;;;;22.75;8.38;;;;;;;;;;4885278;29;20516;-23
2021/01/17 05:45:11;;;;;;;25.10;8.60;;;;;;;;;;4898073;29;20036;-23
2021/01/17 05:47:37;;;;;;;9.40;5.70;;;;;;;;;;4897851;29;20532;-23
2021/01/17 05:50:07;;;;;;;6.90;4.28;;;;;;;;;;4881521;29;20107;-23
2021/01/17 05:52:32;;;;;;;9.52;4.53;;;;;;;;;;4865490;29;20045;-23
2021/01/17 05:54:58;;;;;;;10.38;4.82;;;;;;;;;;4897805;29;20083;-23
2021/01/17 05:57:25;;;;;;;6.30;4.38;;;;;;;;;;4897505;29;20119;-23
2021/01/17 05:59:51;;;;;;;8.20;4.82;;;;;;;;;;4897558;29;20032;-23
2021/01/17 06:02:17;;;;;;;8.23;4.85;;;;;;;;;;4897685;29;20392;-24
2021/01/17 06:04:44;;;;;;;9.38;6.47;;;;;;;;;;4880765;29;20040;-23
2021/01/17 06:07:10;;;;;;;8.23;4.57;;;;;;;;;;4880830;29;20036;-24
2021/01/17 06:09:39;;;;;;;6.80;4.32;;;;;;;;;;4880807;29;20039;-22
2021/01/17 06:12:05;;;;;;;7.10;4.70;;;;;;;;;;4865201;29;20044;-24
2021/01/17 06:14:31;;;;;;;7.90;4.05;;;;;;;;;;4897637;29;20156;-23
2021/01/17 06:17:00;;;;;;;12.43;6.30;;;;;;;;;;4880577;29;20567;-23
2021/01/17 06:19:33;;;;;;;7.07;4.57;;;;;;;;;;4897366;29;20040;-24
2021/01/17 06:21:59;;;;;;;7.00;4.70;;;;;;;;;;4897368;29;20404;-24
2021/01/17 06:24:34;;;;;;;6.88;4.25;;;;;;;;;;4897422;29;20025;-23
2021/01/17 06:27:01;;;;;;;6.63;4.10;;;;;;;;;;4880493;29;20120;-23
2021/01/17 06:29:35;;;;;;;6.78;4.70;;;;;;;;;;4897166;29;20098;-23
2021/01/17 06:32:12;;;;;;;7.75;4.82;;;;;;;;;;4897243;29;20036;-23
2021/01/17 06:34:45;;;;;;;10.70;4.45;;;;;;;;;;4896842;29;20036;-24
2021/01/17 06:37:11;;;;;;;6.82;4.25;;;;;;;;;;4897323;29;20520;-24
2021/01/17 06:39:40;;;;;;;7.88;4.40;;;;;;;;;;4897284;29;20508;-24
2021/01/17 06:42:08;;;;;;;8.15;4.65;;;;;;;;;;4896905;29;20024;-23
2021/01/17 06:44:34;;;;;;;7.10;4.95;;;;;;;;;;4897225;29;20148;-24
2021/01/17 06:47:00;;;;;;;7.57;4.70;;;;;;;;;;4897177;29;20060;-24
2021/01/17 06:49:25;;;;;;;5.68;4.13;;;;;;;;;;4897119;29;20032;-23
2021/01/17 06:51:51;;;;;;;8.80;4.35;;;;;;;;;;4896953;29;20040;-24
2021/01/17 06:54:17;;;;;;;7.20;4.50;;;;;;;;;;4880253;29;20044;-23
2021/01/17 06:56:46;;;;;;;7.88;4.80;;;;;;;;;;4901025;29;20159;-24
2021/01/17 06:59:12;;;;;;;10.00;4.95;;;;;;;;;;4884204;29;20045;-24
2021/01/17 07:01:41;;;;;;;6.85;4.65;;;;;;;;;;4884001;29;20210;-24
2021/01/17 07:04:11;;;;;;;7.72;5.15;;;;;;;;;;4901015;29;20037;-24
2021/01/17 07:06:39;;;;;;;10.95;5.07;;;;;;;;;;4900884;29;20610;-24
2021/01/17 07:09:09;;;;;;;7.78;4.75;;;;;;;;;;4900815;29;20041;-23
2021/01/17 07:11:54;;;;;;;6.93;5.05;;;;;;;;;;4900734;29;20032;-28
2021/01/17 07:14:25;;;;;;;7.88;4.70;;;;;;;;;;4901038;29;20123;-24
2021/01/17 07:16:54;;;;;;;7.25;4.28;;;;;;;;;;4900591;29;20036;-23
2021/01/17 07:19:22;;;;;;;7.65;4.82;;;;;;;;;;4900702;29;20016;-23
2021/01/17 07:21:49;;;;;;;8.00;4.97;;;;;;;;;;4883364;29;20427;-23
2021/01/17 07:24:16;;;;;;;7.07;4.93;;;;;;;;;;4900543;29;20028;-22
2021/01/17 07:26:49;;;;;;;7.75;4.28;;;;;;;;;;4883612;29;20440;-23
2021/01/17 07:29:17;;;;;;;7.07;5.05;;;;;;;;;;4883506;29;20039;-22
2021/01/17 07:31:45;;;;;;;6.00;3.63;;;;;;;;;;4883514;29;20040;-24
2021/01/17 07:34:14;;;;;;;7.38;4.82;;;;;;;;;;4883585;29;20037;-24
2021/01/17 07:36:46;;;;;;;6.70;4.95;;;;;;;;;;4900352;29;20095;-22
2021/01/17 07:39:11;;;;;;;8.87;5.50;;;;;;;;;;4900252;29;20032;-24
2021/01/17 07:41:37;;;;;;;6.20;4.20;;;;;;;;;;4900199;29;20275;-22
2021/01/17 07:44:03;;;;;;;7.57;4.18;;;;;;;;;;4900166;29;20067;-22
2021/01/17 07:46:29;;;;;;;8.65;5.03;;;;;;;;;;4883288;29;20041;-24
2021/01/17 07:48:56;;;;;;;11.75;5.03;;;;;;;;;;4867831;29;20043;-23
2021/01/17 07:51:22;;;;;;;7.60;3.92;;;;;;;;;;4883194;29;20076;-23
2021/01/17 07:53:47;;;;;;;6.18;3.92;;;;;;;;;;4883077;29;20064;-23
2021/01/17 07:56:27;;;;;;;11.00;6.60;;;;;;;;;;4900069;29;20040;-22
2021/01/17 07:58:56;;;;;;;12.35;7.35;;;;;;;;;;4900214;29;20029;-23
2021/01/17 08:01:30;;;;;;;9.88;5.05;;;;;;;;;;4899717;29;20595;-23
2021/01/17 08:04:16;;;;;;;11.55;5.25;;;;;;;;;;4539071;29;9999912;-24
2021/01/17 08:06:42;;;;;;;10.35;5.82;;;;;;;;;;4853509;29;20500;-24
2021/01/17 08:09:16;;;;;;;6.60;5.25;;;;;;;;;;4895346;29;20119;-25
2021/01/17 08:12:01;;;;;;;8.80;5.88;;;;;;;;;;4896501;29;20131;-24
2021/01/17 08:14:30;;;;;;;9.10;5.50;;;;;;;;;;4879504;29;20083;-25
2021/01/17 08:16:59;;;;;;;9.70;6.18;;;;;;;;;;4896164;29;20056;-25
2021/01/17 08:19:43;;;;;;;8.55;5.10;;;;;;;;;;4896097;29;20032;-26
2021/01/17 08:22:18;;;;;;;12.40;4.97;;;;;;;;;;4896110;29;20032;-23
2021/01/17 08:24:47;;;;;;;9.15;5.63;;;;;;;;;;4895795;29;20029;-24
2021/01/17 08:30:06;;;;;;;6.65;4.85;;;;;;;;;;4895486;29;20061;-24
2021/01/17 08:32:34;;;;;;;9.50;4.88;;;;;;;;;;4876120;29;20485;-23
2021/01/17 08:35:15;;;;;;;7.85;5.13;;;;;;;;;;4877374;29;20119;-24
2021/01/17 08:37:41;;;;;;;6.07;4.90;;;;;;;;;;4877521;29;20025;-23
2021/01/17 08:40:07;;;;;;;7.78;4.90;;;;;;;;;;4877353;29;20040;-23
2021/01/17 08:42:34;;;;;;;8.57;5.00;;;;;;;;;;4877390;29;20051;-24
2021/01/17 08:45:00;;;;;;;8.57;5.00;;;;;;;;;;4877081;29;20057;-24
2021/01/17 08:47:25;;;;;;;9.27;5.25;;;;;;;;;;4859920;29;20732;-24
2021/01/17 08:49:51;;;;;;;8.63;5.53;;;;;;;;;;4876483;29;20144;-23
2021/01/17 08:52:23;;;;;;;6.90;5.05;;;;;;;;;;4876261;29;20131;-24
2021/01/17 08:54:49;;;;;;;9.77;5.50;;;;;;;;;;4886172;29;20051;-24
2021/01/17 08:57:33;;;;;;;6.88;4.75;;;;;;;;;;4914556;29;20028;-24
2021/01/17 08:59:59;;;;;;;9.98;4.65;;;;;;;;;;4914419;29;20503;-24
2021/01/17 09:02:24;;;;;;;6.88;4.65;;;;;;;;;;4914459;29;20042;-24
2021/01/17 09:04:50;;;;;;;10.63;5.10;;;;;;;;;;4878657;29;20024;-24
2021/01/17 09:07:31;;;;;;;8.52;5.75;;;;;;;;;;4895164;29;20036;-24
2021/01/17 09:10:04;;;;;;;10.05;4.63;;;;;;;;;;4895106;29;20511;-24
2021/01/17 09:12:33;;;;;;;8.68;5.22;;;;;;;;;;4895300;29;20080;-24
2021/01/17 09:14:59;;;;;;;11.00;5.70;;;;;;;;;;4894436;29;20044;-23
2021/01/17 09:17:25;;;;;;;9.50;5.90;;;;;;;;;;4893518;29;20168;-24
2021/01/17 09:19:55;;;;;;;10.05;6.50;;;;;;;;;;4893227;29;20032;-24
2021/01/17 09:22:21;;;;;;;10.55;6.93;;;;;;;;;;4878183;29;20029;-24
2021/01/17 09:24:49;;;;;;;8.75;5.55;;;;;;;;;;4878524;29;20036;-23
2021/01/17 09:27:18;;;;;;;10.23;5.53;;;;;;;;;;4862523;29;20543;-23
2021/01/17 09:29:45;;;;;;;10.00;6.18;;;;;;;;;;4894645;29;20048;-24
2021/01/17 09:32:11;;;;;;;8.93;5.63;;;;;;;;;;4894764;29;20048;-23
2021/01/17 09:34:38;;;;;;;8.50;5.00;;;;;;;;;;4894725;29;20072;-22
2021/01/17 09:37:06;;;;;;;11.38;5.07;;;;;;;;;;4894845;29;20741;-23
2021/01/17 09:39:34;;;;;;;7.35;5.35;;;;;;;;;;4894494;29;20384;-21
2021/01/17 09:42:00;;;;;;;8.75;5.43;;;;;;;;;;4894290;29;20048;-23
2021/01/17 09:44:25;;;;;;;8.13;5.35;;;;;;;;;;4894871;29;20062;-23
2021/01/17 09:46:51;;;;;;;7.65;5.13;;;;;;;;;;4894807;29;20041;-22
2021/01/17 09:49:20;;;;;;;9.55;5.70;;;;;;;;;;4877862;29;20028;-23
2021/01/17 09:51:46;;;;;;;7.47;6.20;;;;;;;;;;4877366;29;20432;-23
2021/01/17 09:54:12;;;;;;;7.70;5.07;;;;;;;;;;4894460;29;20029;-23
2021/01/17 09:56:44;;;;;;;7.22;4.70;;;;;;;;;;4877771;29;20041;-24
2021/01/17 09:59:17;;;;;;;10.38;5.72;;;;;;;;;;4894725;29;20028;-23
2021/01/17 10:01:42;;;;;;;9.00;5.60;;;;;;;;;;4894431;29;20043;-23
2021/01/17 10:04:19;;;;;;;10.55;6.53;;;;;;;;;;4893900;29;20032;-23
2021/01/17 10:06:45;;;;;;;10.77;6.82;;;;;;;;;;4894076;29;20120;-23
2021/01/17 10:09:21;;;;;;;12.88;6.43;;;;;;;;;;4894291;29;20458;-23
2021/01/17 10:11:53;;;;;;;8.23;5.60;;;;;;;;;;4893952;29;20045;-24
2021/01/17 10:14:26;;;;;;;8.30;6.28;;;;;;;;;;4877236;29;20096;-23
2021/01/17 10:16:53;;;;;;;7.85;4.38;;;;;;;;;;4876594;29;20043;-23
2021/01/17 10:19:25;;;;;;;10.30;6.03;;;;;;;;;;4893611;29;20616;-22
2021/01/17 10:21:50;;;;;;;9.23;5.78;;;;;;;;;;4893729;29;20037;-23
2021/01/17 10:24:23;;;;;;;10.05;7.00;;;;;;;;;;4893421;29;20024;-23
2021/01/17 10:26:50;;;;;;;11.32;6.95;;;;;;;;;;4893745;29;20046;-24
2021/01/17 10:29:18;;;;;;;9.18;5.95;;;;;;;;;;4876288;29;20503;-23
2021/01/17 10:31:47;;;;;;;11.85;6.03;;;;;;;;;;4876841;29;20054;-24
2021/01/17 10:34:20;;;;;;;11.30;7.10;;;;;;;;;;4876778;29;20040;-23
2021/01/17 10:36:46;;;;;;;11.88;6.00;;;;;;;;;;4893546;29;20040;-25
2021/01/17 10:39:12;;;;;;;9.45;6.20;;;;;;;;;;4893593;29;20127;-24
2021/01/17 10:41:37;;;;;;;8.55;5.63;;;;;;;;;;4876559;29;20168;-23
2021/01/17 10:44:07;;;;;;;12.23;6.63;;;;;;;;;;4893557;29;20027;-23
2021/01/17 10:46:34;;;;;;;9.98;6.50;;;;;;;;;;4893479;29;20040;-23
2021/01/17 10:49:02;;;;;;;10.77;6.28;;;;;;;;;;4893806;29;20036;-24
2021/01/17 10:51:38;;;;;;;11.05;5.50;;;;;;;;;;4892838;29;20135;-23
2021/01/17 10:54:05;;;;;;;12.75;6.15;;;;;;;;;;4893719;29;20481;-23
2021/01/17 10:56:32;;;;;;;13.45;6.78;;;;;;;;;;4893471;29;20103;-24
2021/01/17 10:58:58;;;;;;;10.50;6.45;;;;;;;;;;4876719;29;20033;-24
2021/01/17 11:01:35;;;;;;;9.13;5.25;;;;;;;;;;4893575;29;20040;-25
2021/01/17 11:04:01;;;;;;;8.73;5.13;;;;;;;;;;4892898;29;20044;-23
2021/01/17 11:06:28;;;;;;;11.98;6.38;;;;;;;;;;4893393;29;20036;-25
2021/01/17 11:08:55;;;;;;;11.10;6.43;;;;;;;;;;4893423;29;20036;-25
2021/01/17 11:11:22;;;;;;;11.32;5.60;;;;;;;;;;4876730;29;20123;-25
2021/01/17 11:13:58;;;;;;;13.20;7.70;;;;;;;;;;4876152;29;20029;-24
2021/01/17 11:16:43;;;;;;;12.15;6.85;;;;;;;;;;4876195;29;20031;-24
2021/01/17 11:19:10;;;;;;;12.13;6.63;;;;;;;;;;4893656;29;20045;-22
2021/01/17 11:21:35;;;;;;;12.63;5.82;;;;;;;;;;4894388;29;20120;-22
2021/01/17 11:24:01;;;;;;;9.60;5.70;;;;;;;;;;4893325;29;20145;-22
2021/01/17 11:26:26;;;;;;;10.80;6.68;;;;;;;;;;4891680;29;20578;-22
2021/01/17 11:28:56;;;;;;;10.00;5.35;;;;;;;;;;4875894;29;20028;-22
2021/01/17 11:31:22;;;;;;;13.25;6.70;;;;;;;;;;4892907;29;20060;-21
2021/01/17 11:33:48;;;;;;;8.57;6.13;;;;;;;;;;4876099;29;20151;-23
2021/01/17 11:36:17;;;;;;;14.90;7.18;;;;;;;;;;4893127;29;20046;-22
2021/01/17 11:38:53;;;;;;;10.80;7.35;;;;;;;;;;4893182;29;20080;-23
2021/01/17 11:41:19;;;;;;;9.85;6.45;;;;;;;;;;4894975;29;20483;-23
2021/01/17 11:43:45;;;;;;;8.77;5.80;;;;;;;;;;4879861;29;20522;-24
2021/01/17 11:46:11;;;;;;;10.35;7.35;;;;;;;;;;4896520;29;20028;-22
2021/01/17 11:48:37;;;;;;;8.13;5.93;;;;;;;;;;4896581;29;20083;-23
2021/01/17 11:51:04;;;;;;;10.80;6.05;;;;;;;;;;4879502;29;20056;-21
2021/01/17 11:53:30;;;;;;;13.23;6.57;;;;;;;;;;4896021;29;20033;-23
2021/01/17 11:55:56;;;;;;;11.93;6.72;;;;;;;;;;4889669;29;20033;-23
2021/01/17 11:58:21;;;;;;;13.60;8.70;;;;;;;;;;4879480;29;20425;-22
2021/01/17 12:00:57;;;;;;;12.18;6.65;;;;;;;;;;4896224;29;20033;-25
2021/01/17 12:03:24;;;;;;;12.27;6.20;;;;;;;;;;4896090;29;20028;-23
2021/01/17 12:05:59;;;;;;;11.35;6.75;;;;;;;;;;4895873;29;20032;-23
2021/01/17 12:08:25;;;;;;;9.75;5.60;;;;;;;;;;4895025;29;20036;-22
2021/01/17 12:10:54;;;;;;;10.27;7.15;;;;;;;;;;4895269;29;20159;-22
2021/01/17 12:13:20;;;;;;;10.65;6.35;;;;;;;;;;4895646;29;20064;-22
2021/01/17 12:15:46;;;;;;;10.93;7.57;;;;;;;;;;4895655;29;20467;-23
2021/01/17 12:18:11;;;;;;;9.50;6.13;;;;;;;;;;4896212;29;20033;-23
2021/01/17 12:20:37;;;;;;;11.30;6.60;;;;;;;;;;4895994;29;20032;-22
2021/01/17 12:23:02;;;;;;;11.40;6.65;;;;;;;;;;4896129;29;20035;-22
2021/01/17 12:25:28;;;;;;;8.90;6.00;;;;;;;;;;4896384;29;20037;-23
2021/01/17 12:27:53;;;;;;;11.38;4.75;;;;;;;;;;4878201;29;20035;-24
2021/01/17 12:30:19;;;;;;;12.32;6.43;;;;;;;;;;4895780;29;20067;-22
2021/01/17 12:32:44;;;;;;;8.75;5.35;;;;;;;;;;4878593;29;20055;-23
2021/01/17 12:35:10;;;;;;;11.20;7.50;;;;;;;;;;4879148;29;20036;-22
2021/01/17 12:37:36;;;;;;;9.30;6.25;;;;;;;;;;4878734;29;20135;-23
2021/01/17 12:40:01;;;;;;;9.30;7.00;;;;;;;;;;4895348;29;20037;-23
2021/01/17 12:42:27;;;;;;;13.35;6.13;;;;;;;;;;4895627;29;20032;-23
2021/01/17 12:44:52;;;;;;;9.30;5.90;;;;;;;;;;4895787;29;20071;-22
2021/01/17 12:47:18;;;;;;;11.05;7.13;;;;;;;;;;4879327;29;20036;-24
2021/01/17 12:49:43;;;;;;;15.77;8.15;;;;;;;;;;4895650;29;20476;-22
2021/01/17 12:52:08;;;;;;;12.25;7.35;;;;;;;;;;4894893;29;20092;-23
2021/01/17 12:54:34;;;;;;;12.35;7.90;;;;;;;;;;4878521;29;20512;-24
2021/01/17 12:56:59;;;;;;;48.60;31.77;;;;;;;;;;4895439;29;20040;-23
2021/01/17 12:59:25;;;;;;;44.42;25.00;;;;;;;;;;4895894;29;20038;-23
2021/01/17 13:01:50;;;;;;;20.52;11.90;;;;;;;;;;4894882;29;20218;-23
2021/01/17 13:04:16;;;;;;;14.25;7.88;;;;;;;;;;4894654;29;20108;-23
2021/01/17 13:06:41;;;;;;;11.70;7.07;;;;;;;;;;4894750;29;20378;-23
2021/01/17 13:09:07;;;;;;;10.50;7.28;;;;;;;;;;4895247;29;20032;-21
2021/01/17 13:11:32;;;;;;;10.68;7.15;;;;;;;;;;4895066;29;20071;-22
2021/01/17 13:13:58;;;;;;;10.98;7.00;;;;;;;;;;4895271;29;20518;-22
2021/01/17 13:16:23;;;;;;;12.20;7.68;;;;;;;;;;4894884;29;20036;-22
2021/01/17 13:18:50;;;;;;;14.73;6.93;;;;;;;;;;4877841;29;20148;-22
2021/01/17 13:21:15;;;;;;;11.40;6.80;;;;;;;;;;4894476;29;20032;-23
2021/01/17 13:23:41;;;;;;;10.32;7.32;;;;;;;;;;4878305;29;20040;-22
2021/01/17 13:26:07;;;;;;;11.55;7.47;;;;;;;;;;4894873;29;20167;-24
2021/01/17 13:28:32;;;;;;;13.75;7.60;;;;;;;;;;4894707;29;20044;-24
2021/01/17 13:30:57;;;;;;;8.43;6.13;;;;;;;;;;4894318;29;20289;-23
2021/01/17 13:33:23;;;;;;;10.95;7.15;;;;;;;;;;4894903;29;20111;-23
2021/01/17 13:35:50;;;;;;;11.00;7.07;;;;;;;;;;4894559;29;20041;-24
2021/01/17 13:38:16;;;;;;;9.25;7.00;;;;;;;;;;4878024;29;20140;-23
2021/01/17 13:40:42;;;;;;;9.95;6.70;;;;;;;;;;4894490;29;20554;-22
2021/01/17 13:43:08;;;;;;;14.05;7.05;;;;;;;;;;4894563;29;20433;-23
2021/01/17 13:45:34;;;;;;;11.20;7.68;;;;;;;;;;4894606;29;20024;-22
2021/01/17 13:48:01;;;;;;;9.73;7.03;;;;;;;;;;4894799;29;20036;-23
2021/01/17 13:50:26;;;;;;;11.80;6.68;;;;;;;;;;4877802;29;20523;-32
2021/01/17 13:52:52;;;;;;;11.70;7.53;;;;;;;;;;4894399;29;20052;-23
2021/01/17 13:55:17;;;;;;;13.60;6.88;;;;;;;;;;4894678;29;20036;-24
2021/01/17 13:57:43;;;;;;;9.27;6.68;;;;;;;;;;4894281;29;20043;-22
2021/01/17 14:00:10;;;;;;;12.07;7.20;;;;;;;;;;4894813;29;20032;-23
2021/01/17 14:02:35;;;;;;;12.73;7.43;;;;;;;;;;4894480;29;20528;-25
2021/01/17 14:05:01;;;;;;;15.70;6.18;;;;;;;;;;4870373;29;20036;-24
2021/01/17 14:07:26;;;;;;;14.25;7.95;;;;;;;;;;4898635;29;20380;-25
2021/01/17 14:09:52;;;;;;;11.73;8.10;;;;;;;;;;4893717;29;20184;-25
2021/01/17 14:12:17;;;;;;;17.17;9.18;;;;;;;;;;4877153;29;20594;-26
2021/01/17 14:14:44;;;;;;;11.70;6.63;;;;;;;;;;4893918;29;20064;-25
2021/01/17 14:17:10;;;;;;;18.13;9.10;;;;;;;;;;4893548;29;20036;-23
2021/01/17 14:19:35;;;;;;;13.18;6.88;;;;;;;;;;4894268;29;20032;-23
2021/01/17 14:22:01;;;;;;;14.65;9.10;;;;;;;;;;4893541;29;20036;-22
2021/01/17 14:24:26;;;;;;;12.48;7.15;;;;;;;;;;4893830;29;20507;-23
2021/01/17 14:26:52;;;;;;;9.50;6.50;;;;;;;;;;4893525;29;20044;-23
2021/01/17 14:29:17;;;;;;;11.88;7.63;;;;;;;;;;4893418;29;20112;-24
2021/01/17 14:31:47;;;;;;;12.50;7.50;;;;;;;;;;4893405;29;20076;-23
2021/01/17 14:34:13;;;;;;;11.73;6.75;;;;;;;;;;4893695;29;20063;-23
2021/01/17 14:36:40;;;;;;;15.35;8.52;;;;;;;;;;4893863;29;20077;-23
2021/01/17 14:39:07;;;;;;;13.18;8.07;;;;;;;;;;4876601;29;20033;-23
2021/01/17 14:41:33;;;;;;;11.00;7.25;;;;;;;;;;4893459;29;20396;-23
2021/01/17 14:43:59;;;;;;;18.40;9.68;;;;;;;;;;4893694;29;20036;-23